Time;durP1;ratioP1;P1;durP2;ratioP2;P2;SDS_P1;SDS_P2;PMS_P1;PMS_P2;Temp;Humidity;BMP_temperature;BMP_pressure;BME280_temperature;BME280_humidity;BME280_pressure;Samples;Min_cycle;Max_cycle;Signal;HPM_P1;HPM_P2
2021/07/05 00:02:00;;;;;;;16.92;15.23;;;17.10;99.90;;;;;;5005991;28;20058;-45
2021/07/05 00:04:33;;;;;;;15.52;13.63;;;17.10;99.90;;;;;;5007907;28;20498;-45
2021/07/05 00:07:04;;;;;;;;;;;17.10;99.90;;;;;;5008337;28;20061;-46
2021/07/05 00:09:40;;;;;;;13.25;11.95;;;17.10;99.90;;;;;;5001433;28;20289;-46
2021/07/05 00:12:09;;;;;;;13.18;11.77;;;17.10;99.90;;;;;;4998185;28;20069;-46
2021/07/05 00:14:42;;;;;;;11.27;9.23;;;17.10;99.90;;;;;;5011734;28;20089;-45
2021/07/05 00:17:16;;;;;;;11.52;10.35;;;17.00;99.90;;;;;;4991922;28;20499;-45
2021/07/05 00:19:42;;;;;;;12.05;10.75;;;17.00;99.90;;;;;;4994513;28;20050;-47
2021/07/05 00:22:16;;;;;;;10.60;9.68;;;17.00;99.90;;;;;;4994262;28;20061;-45
2021/07/05 00:24:45;;;;;;;11.02;9.70;;;17.00;99.90;;;;;;5002054;28;20077;-45
2021/07/05 00:27:14;;;;;;;11.68;9.43;;;17.00;99.90;;;;;;4990230;28;20495;-47
2021/07/05 00:29:45;;;;;;;10.48;9.27;;;16.90;99.90;;;;;;4988782;28;20057;-45
2021/07/05 00:32:21;;;;;;;11.65;9.10;;;17.00;99.90;;;;;;4990796;28;20053;-46
2021/07/05 00:34:56;;;;;;;10.93;8.82;;;16.90;99.90;;;;;;5008386;28;20054;-46
2021/07/05 00:37:29;;;;;;;8.75;7.85;;;16.90;99.90;;;;;;5007890;28;20058;-45
2021/07/05 00:39:59;;;;;;;9.70;8.73;;;16.90;99.90;;;;;;5008633;28;20065;-45
2021/07/05 00:42:34;;;;;;;9.07;7.88;;;16.90;99.90;;;;;;5009667;28;20060;-45
2021/07/05 00:45:08;;;;;;;9.38;8.20;;;16.90;99.90;;;;;;5010758;28;20132;-45
2021/07/05 00:47:35;;;;;;;8.98;7.60;;;16.90;99.90;;;;;;5009639;28;20045;-47
2021/07/05 00:50:05;;;;;;;9.82;7.63;;;16.90;99.90;;;;;;5010877;28;20045;-46
2021/07/05 00:52:36;;;;;;;9.45;8.55;;;16.90;99.90;;;;;;5010661;28;20058;-46
2021/07/05 00:55:08;;;;;;;9.57;8.60;;;16.80;99.90;;;;;;5009803;28;20160;-46
2021/07/05 00:57:40;;;;;;;10.35;8.13;;;16.70;99.90;;;;;;5009947;28;20045;-46
2021/07/05 01:00:14;;;;;;;10.13;9.00;;;16.70;99.90;;;;;;5010667;28;20045;-44
2021/07/05 01:02:46;;;;;;;13.02;9.48;;;16.70;99.90;;;;;;5010468;28;20053;-47
2021/07/05 01:05:16;;;;;;;10.73;9.63;;;16.70;99.90;;;;;;4992992;28;20053;-47
2021/07/05 01:07:47;;;;;;;10.57;9.48;;;16.70;99.90;;;;;;5009758;28;20057;-45
2021/07/05 01:10:24;;;;;;;17.30;11.35;;;16.70;99.90;;;;;;5014969;28;20045;-44
2021/07/05 01:12:56;;;;;;;12.38;10.75;;;16.70;99.90;;;;;;5001699;28;20058;-47
2021/07/05 01:15:33;;;;;;;13.93;12.20;;;16.60;99.90;;;;;;5002937;28;20038;-45
2021/07/05 01:18:07;;;;;;;14.55;12.25;;;16.60;99.90;;;;;;4998127;28;20461;-45
2021/07/05 01:20:39;;;;;;;14.70;12.48;;;16.50;99.90;;;;;;4990900;28;20085;-46
2021/07/05 01:23:11;;;;;;;;;;;16.50;99.90;;;;;;4991221;28;20164;-45
2021/07/05 01:25:41;;;;;;;;;;;16.40;99.90;;;;;;5003819;28;19925;-45
2021/07/05 01:28:16;;;;;;;22.05;17.45;;;16.40;99.90;;;;;;4998545;28;19932;-44
2021/07/05 01:30:43;;;;;;;20.25;16.50;;;16.30;99.90;;;;;;4991431;28;20086;-46
2021/07/05 01:33:18;;;;;;;23.70;19.95;;;16.30;99.90;;;;;;4996304;28;20073;-46
2021/07/05 01:35:47;;;;;;;21.92;18.75;;;16.30;99.90;;;;;;5009822;28;20046;-46
2021/07/05 01:38:22;;;;;;;23.67;18.35;;;16.20;99.90;;;;;;5009269;28;20057;-45
2021/07/05 01:40:55;;;;;;;26.95;19.60;;;16.20;99.90;;;;;;5009439;28;20061;-45
2021/07/05 01:43:29;;;;;;;23.10;19.83;;;16.20;99.90;;;;;;5009077;28;20561;-45
2021/07/05 01:45:59;;;;;;;25.65;21.38;;;16.20;99.90;;;;;;4999419;28;20125;-45
2021/07/05 01:48:33;;;;;;;30.13;23.95;;;16.20;99.90;;;;;;4989842;28;20051;-45
2021/07/05 01:51:02;;;;;;;28.92;23.65;;;16.10;99.90;;;;;;4989231;28;20631;-44
2021/07/05 01:53:33;;;;;;;31.30;25.73;;;16.10;99.90;;;;;;4990293;28;20101;-46
2021/07/05 01:56:02;;;;;;;33.40;24.73;;;16.10;99.90;;;;;;5008649;28;20490;-45
2021/07/05 01:58:35;;;;;;;35.05;26.42;;;16.10;99.90;;;;;;5009216;28;20819;-45
2021/07/05 02:01:07;;;;;;;37.17;27.17;;;16.10;99.90;;;;;;5010087;28;20049;-46
2021/07/05 02:03:39;;;;;;;37.47;26.85;;;16.10;99.90;;;;;;4992200;28;20061;-45
2021/07/05 02:06:10;;;;;;;35.65;27.77;;;16.10;99.90;;;;;;4994557;28;20093;-46
2021/07/05 02:08:39;;;;;;;32.65;26.75;;;16.10;99.90;;;;;;4990164;28;20491;-45
2021/07/05 02:11:08;;;;;;;40.15;27.70;;;16.10;99.90;;;;;;5007634;28;20050;-45
2021/07/05 02:13:41;;;;;;;32.97;26.65;;;16.10;99.90;;;;;;5008915;28;20417;-47
2021/07/05 02:16:11;;;;;;;34.67;26.95;;;16.10;99.90;;;;;;5009704;28;20494;-45
2021/07/05 02:18:47;;;;;;;33.10;27.65;;;16.10;99.90;;;;;;5008839;28;20533;-46
2021/07/05 02:21:23;;;;;;;35.83;27.73;;;16.00;99.90;;;;;;5009640;28;20057;-46
2021/07/05 02:23:53;;;;;;;40.90;29.88;;;16.00;99.90;;;;;;5009238;28;20057;-46
2021/07/05 02:26:24;;;;;;;39.85;27.63;;;16.00;99.90;;;;;;5009249;28;20050;-45
2021/07/05 02:28:56;;;;;;;35.85;28.45;;;16.00;99.90;;;;;;4999441;28;20051;-45
2021/07/05 02:31:24;;;;;;;33.35;26.75;;;16.10;99.90;;;;;;4990452;28;20166;-47
2021/07/05 02:33:56;;;;;;;37.33;28.60;;;16.00;99.90;;;;;;4990077;28;20090;-45
2021/07/05 02:36:30;;;;;;;43.92;32.25;;;16.00;99.90;;;;;;5003664;28;20052;-46
2021/07/05 02:39:02;;;;;;;42.65;32.55;;;16.00;99.90;;;;;;5008880;28;20092;-45
2021/07/05 02:41:34;;;;;;;61.75;41.47;;;16.10;99.90;;;;;;5008218;28;20127;-45
2021/07/05 02:44:06;;;;;;;51.87;38.17;;;16.10;99.90;;;;;;5010897;28;20120;-48
2021/07/05 02:46:35;;;;;;;51.72;39.20;;;16.00;99.90;;;;;;5009666;28;20053;-47
2021/07/05 02:49:09;;;;;;;55.10;38.67;;;16.00;99.90;;;;;;5008859;28;20050;-44
2021/07/05 02:51:40;;;;;;;50.63;36.50;;;16.00;99.90;;;;;;4988060;28;20058;-46
2021/07/05 02:54:09;;;;;;;54.30;40.03;;;16.00;99.90;;;;;;4996034;28;20052;-45
2021/07/05 02:56:42;;;;;;;58.17;39.13;;;16.00;99.90;;;;;;5007640;28;20794;-46
2021/07/05 02:59:19;;;;;;;54.38;37.30;;;16.10;99.90;;;;;;5008027;28;20050;-46
2021/07/05 03:01:45;;;;;;;48.45;37.80;;;16.00;99.90;;;;;;5009178;28;20042;-45
2021/07/05 03:04:19;;;;;;;49.60;38.65;;;16.10;99.90;;;;;;5009782;28;20132;-44
2021/07/05 03:06:49;;;;;;;46.95;38.33;;;16.10;99.90;;;;;;5008853;28;20049;-44
2021/07/05 03:09:18;;;;;;;54.35;40.33;;;16.10;99.90;;;;;;4990073;28;20046;-45
2021/07/05 03:11:51;;;;;;;50.70;37.95;;;16.10;99.90;;;;;;4993037;28;20423;-46
2021/07/05 03:14:21;;;;;;;48.67;39.47;;;16.10;99.90;;;;;;4997189;28;20494;-45
2021/07/05 03:16:55;;;;;;;48.58;37.75;;;16.20;99.90;;;;;;5008029;28;20046;-45
2021/07/05 03:19:26;;;;;;;53.30;41.03;;;16.10;99.90;;;;;;5008825;28;20073;-46
2021/07/05 03:21:54;;;;;;;49.50;39.72;;;16.20;99.90;;;;;;5008115;28;20415;-44
2021/07/05 03:24:23;;;;;;;46.20;38.53;;;16.10;99.90;;;;;;4989028;28;20051;-46
2021/07/05 03:26:52;;;;;;;47.97;37.03;;;16.20;99.90;;;;;;4989877;28;20089;-45
2021/07/05 03:29:21;;;;;;;43.33;35.00;;;16.10;99.90;;;;;;4988422;28;20058;-47
2021/07/05 03:31:55;;;;;;;41.55;33.22;;;16.10;99.90;;;;;;4988807;28;20054;-46
2021/07/05 03:34:24;;;;;;;;;;;16.10;99.90;;;;;;4989030;28;20100;-45
2021/07/05 03:36:56;;;;;;;40.55;33.15;;;16.10;99.90;;;;;;4995199;28;19926;-46
2021/07/05 03:39:26;;;;;;;45.70;34.53;;;16.10;99.90;;;;;;4987189;28;20046;-45
2021/07/05 03:41:58;;;;;;;44.72;35.10;;;16.00;99.90;;;;;;4994501;28;20407;-46
2021/07/05 03:44:30;;;;;;;38.97;33.33;;;16.00;99.90;;;;;;4990265;28;20042;-45
2021/07/05 03:46:59;;;;;;;40.55;34.03;;;16.00;99.90;;;;;;4989369;28;20108;-47
2021/07/05 03:49:31;;;;;;;37.70;33.50;;;16.00;99.90;;;;;;4988392;28;20077;-46
2021/07/05 03:52:03;;;;;;;40.30;33.80;;;16.00;99.90;;;;;;4971393;28;20058;-45
2021/07/05 03:54:34;;;;;;;42.13;33.80;;;16.10;99.90;;;;;;4994002;28;20544;-45
2021/07/05 03:57:06;;;;;;;42.85;33.30;;;16.10;99.90;;;;;;5006637;28;20300;-48
2021/07/05 03:59:35;;;;;;;;;;;16.10;99.90;;;;;;5003126;28;20081;-46
2021/07/05 04:02:03;;;;;;;40.80;35.15;;;16.10;99.90;;;;;;4990754;28;20028;-44
2021/07/05 04:04:33;;;;;;;44.17;36.85;;;16.10;99.90;;;;;;4990943;28;20129;-46
2021/07/05 04:07:05;;;;;;;43.65;37.88;;;16.10;99.90;;;;;;4993113;28;20081;-46
2021/07/05 04:09:39;;;;;;;44.85;40.03;;;16.20;99.90;;;;;;4993270;28;20069;-46
2021/07/05 04:12:09;;;;;;;42.88;37.90;;;16.20;99.90;;;;;;5008387;28;20057;-48
2021/07/05 04:14:41;;;;;;;45.75;37.95;;;16.30;99.90;;;;;;5003052;28;20085;-46
2021/07/05 04:17:12;;;;;;;41.55;37.22;;;16.40;99.90;;;;;;4993239;28;20061;-45
2021/07/05 04:19:44;;;;;;;41.20;36.77;;;16.40;99.90;;;;;;5006123;28;20057;-45
2021/07/05 04:22:15;;;;;;;40.20;35.85;;;16.40;99.90;;;;;;5011042;28;20297;-47
2021/07/05 04:24:46;;;;;;;43.37;37.13;;;16.50;99.90;;;;;;5004506;28;20158;-50
2021/07/05 04:27:20;;;;;;;40.53;36.23;;;16.50;99.90;;;;;;4991419;28;20812;-45
2021/07/05 04:29:48;;;;;;;43.67;34.90;;;16.50;99.90;;;;;;4996417;28;20060;-45
2021/07/05 04:32:26;;;;;;;42.45;36.70;;;16.50;99.90;;;;;;4993379;28;20049;-46
2021/07/05 04:34:56;;;;;;;41.58;34.45;;;16.60;99.90;;;;;;4991102;28;20525;-47
2021/07/05 04:37:28;;;;;;;36.42;32.60;;;16.60;99.90;;;;;;5006546;28;20081;-45
2021/07/05 04:39:59;;;;;;;39.25;34.40;;;16.70;99.90;;;;;;5010371;28;20092;-47
2021/07/05 04:42:34;;;;;;;38.35;33.75;;;16.70;99.90;;;;;;5010160;28;20512;-45
2021/07/05 04:45:06;;;;;;;34.75;31.15;;;16.80;99.90;;;;;;5010490;28;20050;-44
2021/07/05 04:47:38;;;;;;;31.70;28.60;;;16.80;99.90;;;;;;5012354;28;20127;-47
2021/07/05 04:50:09;;;;;;;30.98;27.67;;;16.80;99.90;;;;;;5009971;28;20045;-47
2021/07/05 04:52:41;;;;;;;29.47;26.30;;;16.80;99.90;;;;;;5009795;28;20135;-46
2021/07/05 04:55:17;;;;;;;30.08;27.08;;;16.80;99.90;;;;;;5010722;28;20049;-47
2021/07/05 04:57:49;;;;;;;28.92;26.15;;;16.80;99.90;;;;;;5018105;28;20061;-46
2021/07/05 05:00:33;;;;;;;29.17;26.38;;;16.80;99.90;;;;;;5005468;28;20051;-47
2021/07/05 05:03:09;;;;;;;30.58;27.58;;;16.90;99.90;;;;;;5010559;28;20052;-46
2021/07/05 05:05:41;;;;;;;28.63;25.77;;;16.90;99.90;;;;;;5010847;28;20148;-47
2021/07/05 05:08:11;;;;;;;28.65;25.95;;;17.00;99.90;;;;;;5013948;28;20072;-46
2021/07/05 05:10:38;;;;;;;29.08;26.02;;;17.10;99.90;;;;;;5011670;28;20701;-45
2021/07/05 05:13:08;;;;;;;26.55;24.05;;;17.30;99.90;;;;;;5017126;28;20081;-45
2021/07/05 05:15:37;;;;;;;25.50;22.90;;;17.30;99.90;;;;;;5009506;28;20054;-46
2021/07/05 05:18:04;;;;;;;25.67;23.00;;;17.40;99.90;;;;;;5011811;28;20061;-46
2021/07/05 05:20:38;;;;;;;24.23;21.95;;;17.40;99.90;;;;;;5009780;28;20112;-48
2021/07/05 05:23:07;;;;;;;26.27;23.75;;;17.40;99.90;;;;;;5010245;28;20053;-46
2021/07/05 05:25:36;;;;;;;24.58;22.17;;;17.40;99.90;;;;;;5009647;28;20076;-46
2021/07/05 05:28:05;;;;;;;25.13;22.58;;;17.40;99.90;;;;;;5016741;28;20135;-46
2021/07/05 05:30:40;;;;;;;22.48;20.45;;;17.40;99.90;;;;;;5005799;28;20152;-45
2021/07/05 05:33:15;;;;;;;22.55;20.35;;;17.30;99.90;;;;;;5012486;28;20115;-47
2021/07/05 05:35:49;;;;;;;22.40;20.27;;;17.30;99.90;;;;;;5010437;28;20517;-47
2021/07/05 05:38:22;;;;;;;22.98;20.88;;;17.30;99.90;;;;;;5008531;28;20516;-47
2021/07/05 05:40:48;;;;;;;23.42;21.17;;;17.30;99.90;;;;;;5000877;28;20054;-46
2021/07/05 05:43:20;;;;;;;22.17;20.27;;;17.20;99.90;;;;;;5009594;28;20045;-47
2021/07/05 05:45:49;;;;;;;;;;;17.20;99.90;;;;;;5009270;28;20045;-46
2021/07/05 05:48:17;;;;;;;42.22;38.03;;;17.10;99.90;;;;;;5008983;28;20128;-50
2021/07/05 05:50:48;;;;;;;36.33;32.80;;;17.10;99.90;;;;;;5004753;28;20057;-46
2021/07/05 05:53:20;;;;;;;36.85;33.42;;;17.10;99.90;;;;;;5009711;28;20081;-46
2021/07/05 05:55:47;;;;;;;27.42;24.75;;;17.00;99.90;;;;;;4992234;28;20410;-47
2021/07/05 05:58:17;;;;;;;26.63;24.13;;;17.10;99.90;;;;;;5008539;28;20184;-45
2021/07/05 06:00:49;;;;;;;33.78;30.52;;;17.00;99.90;;;;;;5009614;28;20062;-46
2021/07/05 06:03:21;;;;;;;35.35;31.88;;;16.90;99.90;;;;;;5009876;28;20479;-45
2021/07/05 06:05:57;;;;;;;24.65;22.15;;;16.90;99.90;;;;;;5012357;28;20050;-47
2021/07/05 06:08:26;;;;;;;27.65;25.13;;;16.90;99.90;;;;;;5009047;28;20054;-45
2021/07/05 06:10:57;;;;;;;144.25;129.48;;;16.80;99.90;;;;;;4989668;28;20141;-45
2021/07/05 06:13:29;;;;;;;39.53;35.70;;;16.90;99.90;;;;;;4996717;28;20069;-47
2021/07/05 06:16:00;;;;;;;36.80;33.10;;;16.80;99.90;;;;;;5009378;28;20550;-46
2021/07/05 06:18:32;;;;;;;30.60;27.73;;;16.80;99.90;;;;;;5005552;28;21326;-46
2021/07/05 06:21:00;;;;;;;30.08;27.15;;;16.70;99.90;;;;;;5005174;28;20073;-45
2021/07/05 06:23:28;;;;;;;32.60;28.42;;;16.60;99.90;;;;;;4990173;28;20663;-46
2021/07/05 06:25:59;;;;;;;31.98;27.13;;;16.50;99.90;;;;;;4996343;28;20061;-49
2021/07/05 06:28:33;;;;;;;29.92;26.85;;;16.40;99.90;;;;;;5000936;28;20068;-49
2021/07/05 06:31:01;;;;;;;27.50;24.33;;;16.30;99.90;;;;;;4985707;28;20145;-51
2021/07/05 06:33:30;;;;;;;28.35;25.45;;;16.20;99.90;;;;;;5012469;28;20048;-46
2021/07/05 06:35:57;;;;;;;41.15;36.53;;;16.20;99.90;;;;;;4990434;28;20057;-45
2021/07/05 06:38:23;;;;;;;69.22;62.15;;;16.10;99.90;;;;;;5005480;28;20056;-45
2021/07/05 06:40:52;;;;;;;32.30;28.73;;;16.00;99.90;;;;;;5006412;28;20141;-46
2021/07/05 06:43:19;;;;;;;20.88;18.05;;;15.90;99.90;;;;;;5009501;28;20056;-46
2021/07/05 06:45:46;;;;;;;13.07;10.07;;;15.70;99.90;;;;;;5011824;28;20569;-45
2021/07/05 06:48:12;;;;;;;11.55;9.38;;;15.70;99.90;;;;;;5006533;28;20148;-45
2021/07/05 06:50:41;;;;;;;12.63;9.98;;;15.50;99.90;;;;;;5006910;28;20054;-45
2021/07/05 06:53:07;;;;;;;19.23;14.45;;;15.40;99.90;;;;;;4989913;28;20046;-44
2021/07/05 06:55:33;;;;;;;15.15;11.60;;;15.50;99.90;;;;;;5006371;28;20045;-44
2021/07/05 06:58:00;;;;;;;13.32;10.80;;;15.50;99.90;;;;;;5005608;28;20053;-44
2021/07/05 07:00:28;;;;;;;13.40;10.02;;;15.50;99.90;;;;;;5004643;28;21239;-45
2021/07/05 07:02:56;;;;;;;9.38;7.18;;;15.40;99.90;;;;;;5004803;28;20056;-43
2021/07/05 07:05:26;;;;;;;9.77;7.07;;;15.30;99.90;;;;;;5003870;28;20057;-46
2021/07/05 07:07:55;;;;;;;10.10;8.60;;;15.20;99.90;;;;;;5001083;28;20582;-44
2021/07/05 07:10:24;;;;;;;10.55;7.30;;;15.20;99.90;;;;;;5005743;28;20101;-43
2021/07/05 07:12:54;;;;;;;9.25;6.97;;;15.20;99.90;;;;;;4993893;28;20396;-42
2021/07/05 07:15:39;;;;;;;19.08;14.38;;;15.10;99.90;;;;;;5007708;28;20129;-44
2021/07/05 07:20:52;;;;;;;33.45;29.92;;;15.10;99.90;;;;;;4962874;28;20133;-44
2021/07/05 07:23:18;;;;;;;16.08;10.88;;;15.10;99.90;;;;;;4961765;28;20561;-44
2021/07/05 07:25:47;;;;;;;6.40;5.00;;;15.10;99.90;;;;;;4963536;28;20073;-47
2021/07/05 07:28:14;;;;;;;7.05;3.90;;;15.10;99.90;;;;;;4963400;28;20050;-44
2021/07/05 07:30:43;;;;;;;13.10;8.60;;;15.00;99.90;;;;;;4962822;28;20061;-44
2021/07/05 07:33:09;;;;;;;10.43;6.60;;;15.00;99.90;;;;;;4964497;28;20150;-46
2021/07/05 07:35:36;;;;;;;7.75;5.53;;;15.00;99.90;;;;;;4965361;28;20061;-47
2021/07/05 07:38:05;;;;;;;65.13;56.97;;;15.10;99.90;;;;;;4961710;28;20070;-46
2021/07/05 07:40:37;;;;;;;19.33;16.25;;;15.10;99.90;;;;;;4969097;28;20055;-44
2021/07/05 07:43:04;;;;;;;30.88;27.27;;;15.00;99.90;;;;;;4963297;28;20534;-44
2021/07/05 07:45:32;;;;;;;11.40;7.90;;;15.00;99.90;;;;;;4959303;28;20396;-50
2021/07/05 07:47:58;;;;;;;12.50;6.60;;;15.00;99.90;;;;;;4962999;28;20058;-46
2021/07/05 07:50:26;;;;;;;6.07;3.83;;;15.10;99.90;;;;;;4967057;28;20349;-44
2021/07/05 07:53:01;;;;;;;9.88;6.63;;;15.20;99.90;;;;;;4965887;28;20369;-45
2021/07/05 07:55:28;;;;;;;10.45;6.95;;;15.30;99.90;;;;;;4968528;28;20047;-47
2021/07/05 07:57:54;;;;;;;6.30;4.18;;;15.30;99.90;;;;;;4963759;28;20049;-44
2021/07/05 08:00:20;;;;;;;5.25;3.75;;;15.20;99.90;;;;;;5011000;28;20041;-46
2021/07/05 08:02:48;;;;;;;7.90;4.53;;;15.20;99.90;;;;;;5007198;28;20062;-45
2021/07/05 08:05:20;;;;;;;7.55;5.70;;;15.30;99.90;;;;;;5007600;28;20930;-48
2021/07/05 08:07:48;;;;;;;6.90;4.82;;;15.30;99.90;;;;;;5002958;28;20084;-48
2021/07/05 08:10:16;;;;;;;7.13;4.93;;;15.50;99.90;;;;;;5009208;28;20077;-48
2021/07/05 08:12:47;;;;;;;13.35;10.88;;;15.70;99.90;;;;;;5006395;28;20050;-49
2021/07/05 08:15:15;;;;;;;10.10;8.02;;;15.80;99.90;;;;;;5003695;28;20517;-50
2021/07/05 08:17:43;;;;;;;25.75;23.00;;;16.00;99.90;;;;;;5005620;28;20049;-45
2021/07/05 08:20:11;;;;;;;8.13;5.07;;;16.30;99.90;;;;;;5012482;28;20117;-47
2021/07/05 08:22:39;;;;;;;6.82;4.20;;;16.40;99.90;;;;;;5010332;28;20054;-46
2021/07/05 08:25:09;;;;;;;9.98;7.30;;;16.70;99.90;;;;;;5006969;28;20054;-45
2021/07/05 08:27:37;;;;;;;7.78;4.30;;;16.70;99.90;;;;;;5006922;28;20418;-45
2021/07/05 08:30:06;;;;;;;8.23;4.55;;;16.80;99.90;;;;;;4991167;28;20080;-47
2021/07/05 08:32:35;;;;;;;;;;;16.90;99.90;;;;;;4989260;28;20064;-45
2021/07/05 08:35:04;;;;;;;8.27;5.40;;;17.00;99.90;;;;;;5012579;28;19999;-45
2021/07/05 08:37:30;;;;;;;8.20;5.82;;;17.30;99.90;;;;;;5009466;28;20054;-48
2021/07/05 08:39:57;;;;;;;10.52;7.03;;;17.70;99.90;;;;;;5009498;28;20096;-47
2021/07/05 08:42:27;;;;;;;10.75;5.72;;;18.00;99.90;;;;;;5005406;28;20157;-45
2021/07/05 08:44:54;;;;;;;12.48;7.85;;;18.00;99.90;;;;;;5009776;28;20057;-46
2021/07/05 08:47:23;;;;;;;11.27;6.63;;;18.20;99.90;;;;;;5009545;28;20410;-47
2021/07/05 08:49:49;;;;;;;10.05;6.85;;;18.60;99.90;;;;;;5009250;28;20142;-46
2021/07/05 08:52:18;;;;;;;10.80;8.25;;;18.70;99.90;;;;;;5008654;28;20050;-46
2021/07/05 08:54:44;;;;;;;9.75;8.07;;;19.10;99.90;;;;;;5006840;28;20058;-45
2021/07/05 08:57:37;;;;;;;11.38;8.88;;;19.50;99.90;;;;;;5009015;28;20054;-45
2021/07/05 09:00:15;;;;;;;20.77;16.92;;;19.40;99.90;;;;;;4993040;28;20123;-46
2021/07/05 09:02:41;;;;;;;24.90;18.90;;;19.40;99.90;;;;;;5005598;28;20045;-48
2021/07/05 09:05:08;;;;;;;20.05;17.38;;;19.10;99.90;;;;;;5008006;28;20120;-45
2021/07/05 09:07:53;;;;;;;19.27;16.08;;;19.00;99.90;;;;;;5005023;28;20058;-46
2021/07/05 09:10:20;;;;;;;13.88;12.32;;;19.00;99.90;;;;;;5006100;28;20107;-47
2021/07/05 09:13:09;;;;;;;13.52;10.93;;;19.10;99.90;;;;;;5007354;28;20042;-47
2021/07/05 09:15:39;;;;;;;14.73;11.27;;;19.00;99.90;;;;;;5005006;28;20088;-49
2021/07/05 09:18:25;;;;;;;12.68;10.02;;;19.00;99.90;;;;;;5003447;28;20462;-46
2021/07/05 09:20:53;;;;;;;11.95;10.13;;;18.70;99.90;;;;;;5004057;28;20065;-47
2021/07/05 09:23:22;;;;;;;13.18;11.27;;;18.50;99.90;;;;;;5006340;28;20809;-45
2021/07/05 09:25:52;;;;;;;13.38;11.93;;;18.50;99.90;;;;;;5007870;28;20062;-45
2021/07/05 09:28:23;;;;;;;14.45;13.05;;;18.50;99.90;;;;;;5011257;28;20063;-45
2021/07/05 09:30:52;;;;;;;16.42;14.18;;;18.40;99.90;;;;;;5008421;28;20101;-46
2021/07/05 09:33:25;;;;;;;18.60;15.15;;;18.30;99.90;;;;;;5014723;28;20074;-46
2021/07/05 09:35:59;;;;;;;16.98;15.05;;;18.20;99.90;;;;;;5008986;28;20053;-48
2021/07/05 09:38:39;;;;;;;54.97;49.22;;;18.30;99.90;;;;;;5005464;28;20517;-49
2021/07/05 09:41:25;;;;;;;29.70;26.93;;;18.30;99.90;;;;;;5006900;28;20050;-46
2021/07/05 09:43:56;;;;;;;21.08;18.23;;;18.30;99.90;;;;;;5010492;28;20796;-45
2021/07/05 09:46:45;;;;;;;23.02;19.48;;;18.50;99.90;;;;;;5012016;28;20049;-46
2021/07/05 09:49:15;;;;;;;23.27;17.15;;;18.70;99.90;;;;;;5010165;28;20041;-46
2021/07/05 09:51:43;;;;;;;22.88;16.15;;;19.00;99.90;;;;;;5001601;28;20757;-46
2021/07/05 09:54:14;;;;;;;16.60;14.73;;;19.30;99.90;;;;;;5008440;28;20053;-46
2021/07/05 09:56:40;;;;;;;16.43;14.80;;;19.30;99.90;;;;;;5008259;28;20049;-47
2021/07/05 09:59:17;;;;;;;15.23;13.50;;;19.30;99.90;;;;;;5008507;28;20049;-47
2021/07/05 10:01:50;;;;;;;15.73;13.85;;;19.20;99.90;;;;;;4991058;28;20068;-47
2021/07/05 10:04:27;;;;;;;18.13;13.23;;;19.10;99.90;;;;;;5007856;28;20046;-46
2021/07/05 10:07:02;;;;;;;24.52;22.02;;;18.70;99.90;;;;;;5007828;28;20073;-45
2021/07/05 10:09:33;;;;;;;19.02;16.63;;;18.70;99.90;;;;;;5006642;28;20046;-48
2021/07/05 10:12:24;;;;;;;18.27;16.23;;;18.50;99.90;;;;;;5006853;28;20050;-47
2021/07/05 10:14:59;;;;;;;17.00;15.23;;;18.40;99.90;;;;;;5008083;28;20054;-46
2021/07/05 10:17:27;;;;;;;17.27;14.88;;;18.50;99.90;;;;;;4989223;28;20088;-48
2021/07/05 10:19:59;;;;;;;21.92;17.15;;;18.50;99.90;;;;;;5006930;28;20061;-46
2021/07/05 10:22:28;;;;;;;18.27;15.73;;;18.60;99.90;;;;;;5008042;28;20053;-46
2021/07/05 10:24:57;;;;;;;19.27;16.77;;;18.60;99.90;;;;;;5007503;28;20118;-47
2021/07/05 10:27:26;;;;;;;17.67;15.82;;;18.80;99.90;;;;;;5007199;28;20050;-46
2021/07/05 10:29:56;;;;;;;18.23;16.05;;;18.90;99.90;;;;;;5007542;28;20053;-46
2021/07/05 10:32:22;;;;;;;16.38;14.68;;;19.30;99.90;;;;;;5007677;28;20089;-47
2021/07/05 10:34:54;;;;;;;16.73;12.75;;;19.90;99.90;;;;;;5002509;28;20042;-46
2021/07/05 10:37:33;;;;;;;22.88;19.75;;;20.70;99.90;;;;;;5001278;28;20503;-47
2021/07/05 10:40:02;;;;;;;21.20;19.05;;;21.30;99.90;;;;;;5008405;28;20050;-46
2021/07/05 10:42:52;;;;;;;16.30;13.35;;;21.60;99.90;;;;;;5007971;28;20045;-48
2021/07/05 10:45:38;;;;;;;18.75;16.75;;;21.90;99.90;;;;;;4985552;28;20089;-47
2021/07/05 10:48:10;;;;;;;15.30;13.20;;;21.70;99.90;;;;;;4987038;28;20152;-48
2021/07/05 10:50:42;;;;;;;19.30;17.23;;;22.00;99.90;;;;;;4986883;28;20062;-47
2021/07/05 10:53:31;;;;;;;14.85;12.23;;;21.90;99.90;;;;;;4985406;28;20050;-48
2021/07/05 10:55:59;;;;;;;16.23;13.75;;;21.50;99.90;;;;;;4982961;28;20050;-49
2021/07/05 10:58:33;;;;;;;15.88;14.18;;;21.10;99.90;;;;;;4992095;28;20054;-47
2021/07/05 11:01:05;;;;;;;15.13;13.45;;;21.10;99.90;;;;;;4985240;28;20058;-47
2021/07/05 11:03:39;;;;;;;14.65;12.77;;;21.30;99.90;;;;;;4974536;28;20098;-46
2021/07/05 11:06:22;;;;;;;14.63;13.07;;;22.00;99.90;;;;;;4982269;28;20046;-47
2021/07/05 11:08:51;;;;;;;12.95;11.00;;;22.50;99.90;;;;;;4985255;28;20169;-48
2021/07/05 11:11:29;;;;;;;14.75;12.20;;;22.70;99.90;;;;;;4984515;28;20462;-47
2021/07/05 11:14:17;;;;;;;12.30;10.45;;;22.90;99.90;;;;;;4975015;28;20426;-48
2021/07/05 11:17:00;;;;;;;14.30;10.73;;;23.60;99.90;;;;;;4985254;28;20134;-49
2021/07/05 11:20:12;;;;;;;16.05;10.02;;;23.60;93.80;;;;;;4990909;28;20438;-48
2021/07/05 11:22:56;;;;;;;14.18;9.93;;;23.80;89.00;;;;;;4920095;29;20058;-51
2021/07/05 11:25:27;;;;;;;13.32;9.60;;;23.90;92.40;;;;;;4913101;29;20058;-48
2021/07/05 11:28:02;;;;;;;11.63;7.95;;;23.70;91.30;;;;;;4921986;29;20051;-47
2021/07/05 11:30:36;;;;;;;12.05;8.50;;;23.50;91.90;;;;;;4925474;29;20206;-48
2021/07/05 11:33:11;;;;;;;11.93;9.05;;;23.20;91.40;;;;;;4911337;29;20460;-47
2021/07/05 11:35:44;;;;;;;13.85;8.85;;;23.20;91.40;;;;;;4907000;29;20513;-49
2021/07/05 11:38:30;;;;;;;10.90;8.00;;;23.40;94.40;;;;;;4913184;29;20512;-46
2021/07/05 11:41:07;;;;;;;11.27;8.95;;;23.30;86.70;;;;;;4912718;29;20072;-48
2021/07/05 11:43:47;;;;;;;14.18;8.20;;;23.10;90.50;;;;;;4912132;29;20079;-46
2021/07/05 11:46:27;;;;;;;13.75;8.23;;;23.00;91.80;;;;;;4889277;29;20060;-49
2021/07/05 11:49:20;;;;;;;10.18;7.88;;;23.20;93.20;;;;;;4907416;29;20047;-47
2021/07/05 11:51:56;;;;;;;10.02;8.80;;;23.10;89.10;;;;;;4926269;29;20535;-44
2021/07/05 11:54:33;;;;;;;13.95;11.75;;;23.60;92.70;;;;;;4923413;29;20048;-49
2021/07/05 11:57:06;;;;;;;9.63;6.53;;;24.00;85.70;;;;;;4915729;28;20051;-47
2021/07/05 11:59:37;;;;;;;7.28;5.35;;;23.90;83.20;;;;;;4992838;28;20050;-47
2021/07/05 12:02:08;;;;;;;;;;;23.70;78.10;;;;;;4987592;28;20055;-49
2021/07/05 12:04:48;;;;;;;10.57;5.03;;;24.00;81.00;;;;;;4978371;28;19925;-45
2021/07/05 12:07:21;;;;;;;7.70;5.43;;;23.70;74.90;;;;;;4970877;28;20046;-45
2021/07/05 12:09:52;;;;;;;7.68;4.70;;;23.70;78.20;;;;;;4987619;28;20046;-48
2021/07/05 12:12:23;;;;;;;8.82;5.20;;;23.60;76.50;;;;;;4986819;28;20043;-44
2021/07/05 12:14:52;;;;;;;7.97;5.07;;;23.20;76.60;;;;;;4987626;28;20093;-44
2021/07/05 12:17:20;;;;;;;9.20;4.50;;;23.40;76.80;;;;;;4987123;28;20418;-45
2021/07/05 12:19:54;;;;;;;14.80;11.65;;;23.70;78.70;;;;;;4987700;28;20065;-45
2021/07/05 12:22:28;;;;;;;9.25;4.85;;;24.20;79.30;;;;;;4987139;28;20075;-46
2021/07/05 12:24:56;;;;;;;17.15;5.90;;;24.20;73.10;;;;;;4996559;28;20058;-46
2021/07/05 12:27:30;;;;;;;10.32;4.65;;;24.10;73.50;;;;;;5005968;28;20053;-46
2021/07/05 12:30:03;;;;;;;8.35;5.30;;;24.20;71.90;;;;;;5011908;28;20088;-45
2021/07/05 12:32:38;;;;;;;8.77;4.60;;;24.10;74.00;;;;;;5005244;28;20108;-46
2021/07/05 12:35:13;;;;;;;8.00;4.35;;;24.50;75.00;;;;;;5006254;28;20050;-45
2021/07/05 12:37:47;;;;;;;7.72;4.93;;;24.30;70.50;;;;;;5009433;28;20048;-46
2021/07/05 12:40:20;;;;;;;8.43;5.53;;;24.80;72.70;;;;;;5010719;28;20057;-46
2021/07/05 12:42:51;;;;;;;8.27;4.68;;;25.50;71.40;;;;;;4992546;28;20168;-45
2021/07/05 12:45:26;;;;;;;7.45;5.13;;;25.80;67.80;;;;;;5010871;28;20108;-48
2021/07/05 12:48:32;;;;;;;8.55;4.35;;;25.70;66.60;;;;;;5007027;28;20052;-47
2021/07/05 12:51:03;;;;;;;8.35;5.45;;;24.90;63.40;;;;;;5009221;28;20200;-47
2021/07/05 12:53:36;;;;;;;12.45;5.95;;;24.50;70.40;;;;;;5007871;28;20536;-47
2021/07/05 12:56:21;;;;;;;14.17;12.23;;;23.90;70.80;;;;;;5009982;28;20049;-47
2021/07/05 12:58:53;;;;;;;10.95;6.30;;;23.40;74.40;;;;;;5008579;28;20155;-46
2021/07/05 13:01:28;;;;;;;7.80;5.78;;;23.80;73.80;;;;;;5014401;28;20044;-47